createdAt,value
2023-04-14T00:04:20.155Z,2.35
2023-04-14T00:09:25.489Z,2.30
2023-04-14T00:14:29.006Z,2.22
2023-04-14T00:19:32.407Z,2.55
2023-04-14T00:24:43.252Z,2.45
2023-04-14T00:29:46.848Z,2.42
2023-04-14T00:34:50.342Z,2.33
2023-04-14T00:39:55.194Z,2.55
2023-04-14T00:44:58.789Z,2.15
2023-04-14T00:50:02.930Z,2.88
2023-04-14T00:55:10.378Z,2.35
2023-04-14T01:00:15.891Z,2.58
2023-04-14T01:05:19.625Z,2.60
2023-04-14T01:10:29.539Z,2.80
2023-04-14T01:15:39.739Z,2.53
2023-04-14T01:20:46.302Z,3.00
2023-04-14T01:26:19.844Z,2.50
2023-04-14T01:31:28.282Z,2.55
2023-04-14T01:36:41.548Z,2.75
2023-04-14T01:41:48.739Z,3.00
2023-04-14T01:46:57.102Z,2.88
2023-04-14T01:52:02.185Z,2.42
2023-04-14T01:57:07.803Z,2.67
2023-04-14T02:02:15.280Z,2.70
2023-04-14T02:07:20.672Z,2.53
2023-04-14T02:12:25.955Z,2.60
2023-04-14T02:17:32.291Z,2.75
2023-04-14T02:22:35.810Z,2.50
2023-04-14T02:27:43.025Z,2.65
2023-04-14T02:32:54.588Z,2.80
2023-04-14T02:38:08.573Z,2.60
2023-04-14T02:43:18.240Z,2.47
2023-04-14T02:48:26.084Z,2.60
2023-04-14T02:53:30.014Z,2.30
2023-04-14T02:58:34.349Z,2.50
2023-04-14T03:03:39.878Z,2.27
2023-04-14T03:08:44.516Z,2.05
2023-04-14T03:13:50.348Z,2.10
2023-04-14T03:18:56.565Z,2.10
2023-04-14T03:24:01.413Z,2.13
2023-04-14T03:34:15.528Z,2.22
2023-04-14T03:39:21.185Z,2.20
2023-04-14T03:44:27.876Z,2.25
2023-04-14T03:49:34.609Z,1.80
2023-04-14T03:54:40.608Z,2.50
2023-04-14T03:59:46.152Z,2.30
2023-04-14T04:04:51.667Z,1.80
2023-04-14T04:09:57.613Z,1.80
2023-04-14T04:15:01.282Z,2.20
2023-04-14T04:20:11.434Z,1.63
2023-04-14T04:25:15.845Z,1.73
2023-04-14T04:30:21.086Z,1.60
2023-04-14T04:35:27.685Z,1.67
2023-04-14T04:40:37.294Z,1.52
2023-04-14T04:46:01.303Z,1.70
2023-04-14T04:51:06.377Z,1.73
2023-04-14T04:56:10.261Z,1.67
2023-04-14T05:01:15.124Z,1.67
2023-04-14T05:06:19.989Z,1.63
2023-04-14T05:16:28.534Z,1.65
2023-04-14T05:21:33.526Z,1.65
2023-04-14T05:26:57.893Z,1.60
2023-04-14T05:32:00.802Z,1.70
2023-04-14T05:37:05.691Z,1.50
2023-04-14T05:42:09.199Z,1.50
2023-04-14T05:47:12.721Z,1.55
2023-04-14T05:52:17.936Z,1.70
2023-04-14T05:57:21.607Z,1.63
2023-04-14T06:02:25.348Z,1.60
2023-04-14T06:07:30.400Z,1.40
2023-04-14T06:12:34.183Z,1.60
2023-04-14T06:17:37.791Z,1.70
2023-04-14T06:22:43.536Z,1.40
2023-04-14T06:27:47.493Z,1.35
2023-04-14T06:32:54.437Z,1.65
2023-04-14T06:37:59.906Z,1.80
2023-04-14T06:43:03.452Z,1.50
2023-04-14T06:48:08.160Z,1.60
2023-04-14T06:53:13.718Z,1.60
2023-04-14T06:58:17.400Z,1.40
2023-04-14T07:03:22.904Z,1.50
2023-04-14T07:08:32.273Z,1.63
2023-04-14T07:13:36.592Z,1.60
2023-04-14T07:18:40.278Z,1.50
2023-04-14T07:23:46.691Z,1.60
2023-04-14T07:28:51.041Z,1.45
2023-04-14T07:33:55.657Z,1.60
2023-04-14T07:39:01.060Z,1.63
2023-04-14T07:44:04.673Z,1.38
2023-04-14T07:49:08.500Z,1.52
2023-04-14T07:54:13.968Z,1.77
2023-04-14T07:59:17.714Z,1.50
2023-04-14T08:04:21.376Z,1.52
2023-04-14T08:09:26.578Z,1.63
2023-04-14T08:14:30.177Z,1.58
2023-04-14T08:19:34.078Z,1.52
2023-04-14T08:24:38.931Z,1.70
2023-04-14T08:29:42.680Z,1.67
2023-04-14T08:35:35.344Z,1.70
2023-04-14T08:40:14.051Z,1.50
2023-04-14T08:45:21.467Z,1.70
2023-04-14T08:50:28.600Z,1.33
2023-04-14T08:55:34.158Z,1.50
2023-04-14T09:00:39.101Z,1.45
2023-04-14T09:05:44.093Z,1.58
2023-04-14T09:10:49.848Z,1.60
2023-04-14T09:15:54.825Z,1.60
2023-04-14T09:21:49.722Z,1.30
2023-04-14T09:26:27.773Z,1.25
2023-04-14T09:31:31.738Z,1.30
2023-04-14T09:36:35.282Z,1.40
2023-04-14T09:41:49.297Z,1.50
2023-04-14T09:47:05.333Z,1.40
2023-04-14T09:52:10.610Z,1.73
2023-04-14T09:57:26.482Z,1.58
2023-04-14T10:02:30.941Z,1.20
2023-04-14T10:07:34.842Z,1.42
2023-04-14T10:12:42.394Z,1.30
2023-04-14T10:17:45.950Z,1.40
2023-04-14T10:22:49.909Z,1.60
2023-04-14T10:27:55.342Z,1.30
2023-04-14T10:32:59.570Z,1.50
2023-04-14T10:38:04.808Z,1.50
2023-04-14T10:43:14.504Z,1.70
2023-04-14T10:48:18.661Z,1.67
2023-04-14T10:53:25.588Z,1.37
2023-04-14T10:58:30.889Z,1.60
2023-04-14T11:03:46.138Z,1.50
2023-04-14T11:08:52.517Z,1.70
2023-04-14T11:14:17.575Z,1.70
2023-04-14T11:19:21.819Z,1.65
2023-04-14T11:24:26.714Z,1.38
2023-04-14T11:34:35.642Z,1.60
2023-04-14T11:39:39.534Z,2.00
2023-04-14T11:44:44.854Z,1.77
2023-04-14T11:49:48.831Z,1.70
2023-04-14T11:54:52.983Z,1.75
2023-04-14T11:59:58.567Z,1.70
2023-04-14T12:05:02.345Z,1.50
2023-04-14T12:10:08.794Z,1.77
2023-04-14T12:15:14.961Z,1.42
2023-04-14T12:20:18.912Z,1.70
2023-04-14T12:25:22.645Z,1.40
2023-04-14T12:30:27.683Z,1.50
2023-04-14T12:35:35.981Z,1.70
2023-04-14T12:40:40.786Z,2.38
2023-04-14T12:45:47.583Z,1.90
2023-04-14T12:50:52.371Z,1.70
2023-04-14T13:01:15.616Z,1.65
2023-04-14T13:06:20.318Z,1.92
2023-04-14T13:11:25.892Z,1.55
2023-04-14T13:16:30.982Z,1.80
2023-04-14T13:21:35.162Z,2.10
2023-04-14T13:26:38.970Z,2.07
2023-04-14T13:31:43.897Z,1.60
2023-04-14T13:41:51.979Z,2.40
2023-04-14T13:52:00.709Z,2.15
2023-04-14T13:57:05.566Z,2.70
2023-04-14T14:02:10.637Z,3.35
2023-04-14T14:07:14.336Z,4.18
2023-04-14T14:12:18.581Z,4.70
2023-04-14T14:17:23.928Z,3.85
2023-04-14T14:22:27.733Z,4.13
2023-04-14T14:27:31.163Z,4.30
2023-04-14T14:32:36.200Z,4.97
2023-04-14T14:37:41.013Z,4.53
2023-04-14T14:42:44.976Z,3.30
2023-04-14T14:47:49.973Z,3.90
2023-04-14T14:52:56.328Z,3.33
2023-04-14T14:58:01.274Z,2.80
2023-04-14T15:03:06.875Z,3.10
2023-04-14T15:08:11.051Z,3.20
2023-04-14T15:13:15.002Z,3.50
2023-04-14T15:18:21.272Z,3.60
2023-04-14T15:23:24.929Z,3.85
2023-04-14T15:28:28.527Z,3.80
2023-04-14T15:33:33.524Z,3.80
2023-04-14T15:43:40.507Z,3.60
2023-04-14T15:48:45.713Z,3.67
2023-04-14T15:53:49.239Z,3.30
2023-04-14T15:58:52.762Z,3.47
2023-04-14T16:03:57.757Z,3.47
2023-04-14T16:14:05.625Z,4.00
2023-04-14T16:19:10.552Z,4.75
2023-04-14T16:29:17.214Z,5.10
2023-04-14T16:34:22.423Z,5.20
2023-04-14T16:39:26.112Z,6.63
2023-04-14T16:44:29.957Z,5.85
2023-04-14T16:49:34.858Z,6.20
2023-04-14T16:59:42.175Z,5.65
2023-04-14T17:04:47.245Z,5.35
2023-04-14T17:09:51.018Z,5.20
2023-04-14T17:14:54.440Z,6.63
2023-04-14T17:19:59.753Z,7.45
2023-04-14T17:25:06.581Z,7.00
2023-04-14T17:30:12.038Z,6.13
2023-04-14T17:35:17.251Z,4.78
2023-04-14T17:45:24.164Z,5.13
2023-04-14T17:50:30.431Z,4.72
2023-04-14T17:55:34.185Z,5.07
2023-04-14T18:00:37.674Z,5.10
2023-04-14T18:05:42.757Z,5.05
2023-04-14T18:15:51.124Z,5.00
2023-04-14T18:20:56.085Z,4.55
2023-04-14T18:31:10.027Z,3.97
2023-04-14T18:36:16.128Z,4.18
2023-04-14T18:41:20.263Z,3.00
2023-04-14T18:46:23.867Z,2.50
2023-04-14T18:51:28.941Z,2.20
2023-04-14T18:56:32.689Z,2.33
2023-04-14T19:01:36.259Z,2.10
2023-04-14T19:06:41.423Z,1.77
2023-04-14T19:11:46.164Z,1.70
2023-04-14T19:16:49.847Z,1.70
2023-04-14T19:21:55.086Z,1.40
2023-04-14T19:32:02.548Z,1.70
2023-04-14T19:37:07.571Z,2.10
2023-04-14T19:42:11.011Z,2.10
2023-04-14T19:47:14.655Z,2.00
2023-04-14T19:52:20.251Z,1.77
2023-04-14T19:57:24.142Z,1.70
2023-04-14T20:02:30.138Z,1.67
2023-04-14T20:07:35.561Z,1.48
2023-04-14T20:12:39.021Z,1.63
2023-04-14T20:17:43.087Z,1.67
2023-04-14T20:22:49.506Z,1.60
2023-04-14T20:27:53.057Z,1.80
2023-04-14T20:32:56.730Z,2.22
2023-04-14T20:38:01.772Z,1.83
2023-04-14T20:43:06.347Z,1.90
2023-04-14T20:48:09.809Z,1.70
2023-04-14T20:53:15.248Z,1.70
2023-04-14T20:58:18.707Z,1.92
2023-04-14T21:03:24.007Z,1.60
2023-04-14T21:08:29.950Z,1.98
2023-04-14T21:15:25.508Z,1.27
2023-04-14T21:18:56.862Z,1.67
2023-04-14T21:24:02.150Z,1.83
2023-04-14T21:29:05.679Z,1.80
2023-04-14T21:34:09.108Z,1.67
2023-04-14T21:39:13.997Z,1.73
2023-04-14T21:49:20.827Z,1.70
2023-04-14T21:54:26.656Z,2.35
2023-04-14T21:59:30.109Z,1.80
2023-04-14T22:04:36.958Z,1.80
2023-04-14T22:09:44.195Z,1.85
2023-04-14T22:14:47.973Z,1.83
2023-04-14T22:19:51.563Z,1.50
2023-04-14T22:24:57.304Z,1.70
2023-04-14T22:30:01.573Z,1.58
2023-04-14T22:35:07.429Z,1.70
2023-04-14T22:40:13.298Z,1.67
2023-04-14T22:50:19.982Z,1.52
2023-04-14T22:55:24.890Z,1.88
2023-04-14T23:00:28.733Z,1.83
2023-04-14T23:05:32.137Z,1.90
2023-04-14T23:10:36.995Z,2.22
2023-04-14T23:15:40.458Z,1.60
2023-04-14T23:20:44.704Z,1.90
2023-04-14T23:25:49.810Z,1.77
2023-04-14T23:35:56.794Z,1.58
2023-04-14T23:41:01.808Z,2.08
2023-04-14T23:51:16.110Z,2.10
2023-04-14T23:56:24.908Z,2.00
